createdAt,value
2019-02-20T00:00:00.771Z,0.00
2019-02-20T00:01:00.635Z,0.00
2019-02-20T00:02:00.580Z,0.00
2019-02-20T00:03:00.520Z,0.00
2019-02-20T00:04:00.620Z,0.00
2019-02-20T00:05:00.557Z,0.00
2019-02-20T00:06:00.627Z,0.00
2019-02-20T00:07:00.519Z,0.00
2019-02-20T00:08:00.563Z,0.00
2019-02-20T00:09:00.466Z,0.00
2019-02-20T00:10:00.569Z,0.00
2019-02-20T00:11:00.409Z,0.00
2019-02-20T00:12:00.566Z,0.00
2019-02-20T00:13:00.408Z,0.00
2019-02-20T00:14:00.499Z,0.00
2019-02-20T00:15:00.482Z,0.00
2019-02-20T00:16:00.570Z,0.00
2019-02-20T00:17:00.358Z,0.00
2019-02-20T00:18:00.467Z,0.00
2019-02-20T00:19:00.334Z,0.00
2019-02-20T00:20:00.451Z,0.00
2019-02-20T00:21:00.317Z,0.00
2019-02-20T00:22:00.318Z,0.00
2019-02-20T00:23:00.302Z,0.00
2019-02-20T00:24:00.437Z,0.00
2019-02-20T00:25:00.432Z,0.00
2019-02-20T00:26:00.338Z,0.00
2019-02-20T00:27:00.284Z,0.00
2019-02-20T00:28:00.250Z,0.00
2019-02-20T00:29:00.250Z,0.00
2019-02-20T00:30:00.404Z,0.00
2019-02-20T00:31:00.264Z,0.00
2019-02-20T00:32:00.267Z,0.00
2019-02-20T00:33:00.211Z,0.00
2019-02-20T00:34:00.959Z,0.00
2019-02-20T00:35:00.275Z,0.00
2019-02-20T00:36:00.281Z,0.00
2019-02-20T00:37:00.174Z,0.00
2019-02-20T00:38:01.317Z,0.00
2019-02-20T00:39:00.161Z,0.00
2019-02-20T00:40:00.277Z,0.00
2019-02-20T00:41:00.478Z,0.00
2019-02-20T00:42:00.232Z,0.00
2019-02-20T00:43:00.098Z,0.00
2019-02-20T00:44:00.174Z,0.00
2019-02-20T00:45:00.329Z,0.00
2019-02-20T00:46:00.067Z,0.00
2019-02-20T00:47:00.160Z,0.00
2019-02-20T00:48:00.051Z,0.00
2019-02-20T00:49:00.076Z,0.00
2019-02-20T00:50:00.409Z,0.00
2019-02-20T00:51:00.162Z,0.00
2019-02-20T00:52:00.011Z,0.00
2019-02-20T00:53:00.087Z,0.00
2019-02-20T00:53:59.969Z,0.00
2019-02-20T00:55:00.246Z,0.00
2019-02-20T00:56:00.007Z,0.00
2019-02-20T00:57:00.059Z,0.00
2019-02-20T00:57:59.959Z,0.00
2019-02-20T00:59:00.079Z,0.00
2019-02-20T00:59:59.927Z,0.00
2019-02-20T01:01:00.018Z,0.00
2019-02-20T01:01:59.881Z,0.00
2019-02-20T01:02:59.884Z,0.00
2019-02-20T01:03:59.869Z,0.00
2019-02-20T01:04:59.993Z,0.00
2019-02-20T01:05:59.959Z,0.00
2019-02-20T01:06:59.995Z,0.00
2019-02-20T01:07:59.849Z,0.00
2019-02-20T01:08:59.890Z,0.00
2019-02-20T01:09:59.856Z,0.00
2019-02-20T01:10:59.912Z,0.00
2019-02-20T01:12:00.455Z,0.00
2019-02-20T01:12:59.911Z,0.00
2019-02-20T01:13:59.837Z,0.00
2019-02-20T01:14:59.798Z,0.00
2019-02-20T01:15:59.830Z,0.00
2019-02-20T01:16:59.801Z,0.00
2019-02-20T01:17:59.833Z,0.00
2019-02-20T01:18:59.714Z,0.00
2019-02-20T01:19:59.827Z,0.00
2019-02-20T01:20:59.695Z,0.00
2019-02-20T01:21:59.890Z,0.00
2019-02-20T01:23:00.397Z,0.00
2019-02-20T01:24:00.007Z,0.00
2019-02-20T01:24:59.871Z,0.00
2019-02-20T01:25:59.639Z,0.00
2019-02-20T01:26:59.681Z,0.00
2019-02-20T01:27:59.737Z,0.00
2019-02-20T01:28:59.650Z,0.00
2019-02-20T01:29:59.725Z,0.00
2019-02-20T01:30:59.599Z,0.00
2019-02-20T01:31:59.603Z,0.00
2019-02-20T01:32:59.720Z,0.00
2019-02-20T01:33:59.636Z,0.00
2019-02-20T01:34:59.542Z,0.00
2019-02-20T01:35:59.691Z,0.00
2019-02-20T01:36:59.535Z,0.00
2019-02-20T01:37:59.580Z,0.00
2019-02-20T01:38:59.509Z,0.00
2019-02-20T01:39:59.576Z,0.00
2019-02-20T01:40:59.474Z,0.00
2019-02-20T01:41:59.592Z,0.00
2019-02-20T01:42:59.516Z,0.00
2019-02-20T01:43:59.456Z,0.00
2019-02-20T01:44:59.434Z,0.00
2019-02-20T01:45:59.565Z,0.00
2019-02-20T01:46:59.421Z,0.00
2019-02-20T01:47:59.509Z,0.00
2019-02-20T01:48:59.417Z,0.00
2019-02-20T01:49:59.409Z,0.00
2019-02-20T01:50:59.450Z,0.00
2019-02-20T01:51:59.398Z,0.00
2019-02-20T01:52:59.507Z,0.00
2019-02-20T01:53:59.431Z,0.00
2019-02-20T01:54:59.414Z,0.00
2019-02-20T01:55:59.340Z,0.00
2019-02-20T01:56:59.399Z,0.00
2019-02-20T01:57:59.517Z,0.00
2019-02-20T01:58:59.397Z,0.00
2019-02-20T01:59:59.332Z,0.00
2019-02-20T02:00:59.294Z,0.00
2019-02-20T02:01:59.321Z,0.00
2019-02-20T02:02:59.331Z,0.00
2019-02-20T02:03:59.325Z,0.00
2019-02-20T02:04:59.424Z,0.00
2019-02-20T02:05:59.266Z,0.00
2019-02-20T02:06:59.234Z,0.00
2019-02-20T02:07:59.269Z,0.00
2019-02-20T02:08:59.780Z,0.00
2019-02-20T02:09:59.353Z,0.00
2019-02-20T02:10:59.163Z,0.00
2019-02-20T02:11:59.305Z,0.00
2019-02-20T02:12:59.204Z,0.00
2019-02-20T02:13:59.149Z,0.00
2019-02-20T02:14:59.402Z,0.00
2019-02-20T02:15:59.118Z,0.00
2019-02-20T02:16:59.216Z,0.00
2019-02-20T02:17:59.111Z,0.00
2019-02-20T02:18:59.134Z,0.00
2019-02-20T02:19:59.259Z,0.00
2019-02-20T02:20:59.117Z,0.00
2019-02-20T02:21:59.163Z,0.00
2019-02-20T02:22:59.060Z,0.00
2019-02-20T02:23:59.171Z,0.00
2019-02-20T02:24:59.081Z,0.00
2019-02-20T02:25:59.148Z,0.00
2019-02-20T02:26:59.046Z,0.00
2019-02-20T02:27:59.168Z,0.00
2019-02-20T02:28:58.997Z,0.00
2019-02-20T02:29:59.082Z,0.00
2019-02-20T02:30:59.082Z,0.00
2019-02-20T02:31:59.013Z,0.00
2019-02-20T02:32:58.954Z,0.00
2019-02-20T02:33:59.089Z,0.00
2019-02-20T02:34:58.917Z,0.00
2019-02-20T02:35:58.947Z,0.00
2019-02-20T02:36:58.922Z,0.00
2019-02-20T02:37:59.062Z,0.00
2019-02-20T02:38:58.904Z,0.00
2019-02-20T02:39:59.270Z,0.00
2019-02-20T02:40:58.882Z,0.00
2019-02-20T02:41:58.916Z,0.00
2019-02-20T02:42:58.850Z,0.00
2019-02-20T02:43:59.003Z,0.00
2019-02-20T02:44:58.963Z,0.00
2019-02-20T02:45:59.114Z,0.00
2019-02-20T02:46:58.828Z,0.00
2019-02-20T02:47:58.820Z,0.00
2019-02-20T02:49:00.003Z,0.00
2019-02-20T02:49:58.768Z,0.00
2019-02-20T02:50:58.924Z,0.00
2019-02-20T02:51:58.832Z,0.00
2019-02-20T02:52:59.012Z,0.00
2019-02-20T02:53:58.763Z,0.00
2019-02-20T02:54:59.868Z,0.00
2019-02-20T02:55:58.786Z,0.00
2019-02-20T02:56:58.974Z,0.00
2019-02-20T02:57:58.718Z,0.00
2019-02-20T02:58:58.897Z,0.00
2019-02-20T02:59:58.769Z,0.00
2019-02-20T03:00:58.872Z,0.00
2019-02-20T03:01:58.638Z,0.00
2019-02-20T03:02:58.974Z,0.00
2019-02-20T03:03:58.640Z,0.00
2019-02-20T03:04:58.860Z,0.00
2019-02-20T03:05:58.677Z,0.00
2019-02-20T03:06:58.749Z,0.00
2019-02-20T03:07:58.610Z,0.00
2019-02-20T03:08:58.764Z,0.00
2019-02-20T03:09:58.609Z,0.00
2019-02-20T03:10:58.588Z,0.00
2019-02-20T03:11:58.577Z,0.00
2019-02-20T03:12:58.780Z,0.00
2019-02-20T03:13:58.521Z,0.00
2019-02-20T03:14:58.692Z,0.00
2019-02-20T03:15:58.632Z,0.00
2019-02-20T03:16:58.627Z,0.00
2019-02-20T03:17:58.651Z,0.00
2019-02-20T03:18:58.489Z,0.00
2019-02-20T03:19:58.609Z,0.00
2019-02-20T03:20:58.437Z,0.00
2019-02-20T03:21:58.682Z,0.00
2019-02-20T03:22:58.444Z,0.00
2019-02-20T03:23:59.638Z,0.00
2019-02-20T03:24:58.427Z,0.00
2019-02-20T03:25:58.580Z,0.00
2019-02-20T03:26:58.379Z,0.00
2019-02-20T03:27:58.471Z,0.00
2019-02-20T03:28:58.465Z,0.00
2019-02-20T03:29:58.485Z,0.00
2019-02-20T03:30:58.317Z,0.00
2019-02-20T03:31:59.574Z,0.00
2019-02-20T03:32:58.337Z,0.00
2019-02-20T03:33:58.343Z,0.00
2019-02-20T03:34:58.326Z,0.00
2019-02-20T03:35:58.825Z,0.00
2019-02-20T03:36:58.306Z,0.00
2019-02-20T03:37:58.447Z,0.00
2019-02-20T03:38:58.259Z,0.00
2019-02-20T03:39:58.301Z,0.00
2019-02-20T03:40:58.234Z,0.00
2019-02-20T03:41:58.349Z,0.00
2019-02-20T03:42:58.230Z,0.00
2019-02-20T03:43:58.380Z,0.00
2019-02-20T03:44:58.249Z,0.00
2019-02-20T03:45:58.203Z,0.00
2019-02-20T03:46:58.380Z,0.00
2019-02-20T03:47:58.164Z,0.00
2019-02-20T03:48:58.322Z,0.00
2019-02-20T03:49:58.183Z,0.00
2019-02-20T03:50:58.380Z,0.00
2019-02-20T03:51:58.118Z,0.00
2019-02-20T03:52:58.320Z,0.00
2019-02-20T03:53:58.105Z,0.00
2019-02-20T03:54:58.233Z,0.00
2019-02-20T03:55:58.186Z,0.00
2019-02-20T03:56:58.286Z,0.00
2019-02-20T03:57:58.116Z,0.00
2019-02-20T03:58:58.336Z,0.00
2019-02-20T03:59:58.059Z,0.00
2019-02-20T04:00:59.176Z,0.00
2019-02-20T04:01:58.021Z,0.00
2019-02-20T04:02:58.027Z,0.00
2019-02-20T04:03:58.029Z,0.00
2019-02-20T04:04:58.205Z,0.00
2019-02-20T04:05:58.012Z,0.00
2019-02-20T04:06:58.320Z,0.00
2019-02-20T04:07:57.953Z,0.00
2019-02-20T04:08:57.973Z,0.00
2019-02-20T04:09:57.971Z,0.00
2019-02-20T04:10:58.130Z,0.00
2019-02-20T04:11:58.119Z,0.00
2019-02-20T04:12:58.088Z,0.00
2019-02-20T04:13:57.910Z,0.00
2019-02-20T04:14:57.885Z,0.00
2019-02-20T04:15:57.944Z,0.00
2019-02-20T04:16:58.114Z,0.00
2019-02-20T04:17:57.933Z,0.00
2019-02-20T04:18:57.980Z,0.00
2019-02-20T04:19:57.950Z,0.00
2019-02-20T04:20:57.890Z,0.00
2019-02-20T04:21:57.856Z,0.00
2019-02-20T04:22:58.071Z,0.00
2019-02-20T04:24:02.245Z,0.00
2019-02-20T04:24:58.058Z,0.00
2019-02-20T04:25:57.826Z,0.00
2019-02-20T04:26:57.835Z,0.00
2019-02-20T04:27:57.944Z,0.00
2019-02-20T04:28:57.737Z,0.00
2019-02-20T04:29:57.785Z,0.00
2019-02-20T04:30:57.778Z,0.00
2019-02-20T04:31:57.905Z,0.00
2019-02-20T04:32:58.541Z,0.00
2019-02-20T04:33:57.891Z,0.00
2019-02-20T04:34:57.732Z,0.00
2019-02-20T04:35:57.818Z,0.00
2019-02-20T04:36:57.745Z,0.00
2019-02-20T04:37:57.750Z,0.00
2019-02-20T04:38:57.764Z,0.00
2019-02-20T04:39:57.843Z,0.00
2019-02-20T04:40:57.624Z,0.00
2019-02-20T04:41:57.762Z,0.00
2019-02-20T04:42:58.550Z,0.00
2019-02-20T04:43:57.632Z,0.00
2019-02-20T04:44:57.597Z,0.00
2019-02-20T04:45:57.771Z,0.00
2019-02-20T04:46:57.564Z,0.00
2019-02-20T04:47:57.662Z,0.00
2019-02-20T04:48:57.573Z,0.00
2019-02-20T04:49:57.563Z,0.00
2019-02-20T04:50:57.528Z,0.00
2019-02-20T04:51:58.655Z,0.00
2019-02-20T04:52:57.569Z,0.00
2019-02-20T04:53:57.657Z,0.00
2019-02-20T04:54:57.478Z,0.00
2019-02-20T04:55:57.523Z,0.00
2019-02-20T04:56:57.473Z,0.00
2019-02-20T04:57:57.626Z,0.00
2019-02-20T04:58:57.481Z,0.00
2019-02-20T04:59:57.685Z,0.00
2019-02-20T05:00:57.441Z,0.00
2019-02-20T05:01:57.441Z,0.00
2019-02-20T05:02:57.575Z,0.00
2019-02-20T05:03:57.399Z,0.00
2019-02-20T05:04:57.579Z,0.00
2019-02-20T05:05:57.384Z,0.00
2019-02-20T05:06:57.355Z,0.00
2019-02-20T05:07:57.375Z,0.00
2019-02-20T05:08:57.496Z,0.00
2019-02-20T05:09:57.424Z,0.00
2019-02-20T05:10:57.465Z,0.00
2019-02-20T05:11:57.318Z,0.00
2019-02-20T05:12:57.333Z,0.00
2019-02-20T05:13:57.445Z,0.00
2019-02-20T05:14:57.309Z,0.00
2019-02-20T05:15:57.422Z,0.00
2019-02-20T05:16:57.255Z,0.00
2019-02-20T05:17:57.349Z,0.00
2019-02-20T05:18:57.261Z,0.00
2019-02-20T05:19:57.463Z,0.00
2019-02-20T05:20:57.240Z,0.00
2019-02-20T05:21:57.390Z,0.00
2019-02-20T05:22:57.214Z,0.00
2019-02-20T05:23:57.294Z,0.00
2019-02-20T05:24:57.165Z,0.00
2019-02-20T05:25:57.383Z,0.00
2019-02-20T05:26:57.222Z,0.00
2019-02-20T05:27:57.327Z,0.00
2019-02-20T05:28:57.134Z,0.00
2019-02-20T05:29:57.264Z,0.00
2019-02-20T05:30:57.164Z,0.00
2019-02-20T05:31:57.342Z,0.00
2019-02-20T05:32:57.073Z,0.00
2019-02-20T05:33:57.477Z,0.00
2019-02-20T05:34:57.061Z,0.00
2019-02-20T05:35:57.095Z,0.00
2019-02-20T05:36:57.050Z,0.00
2019-02-20T05:37:58.223Z,0.00
2019-02-20T05:38:57.014Z,0.00
2019-02-20T05:39:57.223Z,0.00
2019-02-20T05:40:57.096Z,0.00
2019-02-20T05:41:56.999Z,0.00
2019-02-20T05:42:57.034Z,0.00
2019-02-20T05:43:58.189Z,0.00
2019-02-20T05:44:57.169Z,0.00
2019-02-20T05:45:57.127Z,0.00
2019-02-20T05:46:56.975Z,0.00
2019-02-20T05:47:56.907Z,0.00
2019-02-20T05:48:57.046Z,0.00
2019-02-20T05:49:56.937Z,0.00
2019-02-20T05:50:57.089Z,0.00
2019-02-20T05:51:56.907Z,0.00
2019-02-20T05:52:56.988Z,0.00
2019-02-20T05:53:56.872Z,0.00
2019-02-20T05:54:56.980Z,0.00
2019-02-20T05:55:56.834Z,0.00
2019-02-20T05:56:57.107Z,0.00
2019-02-20T05:57:56.962Z,0.00
2019-02-20T05:58:56.926Z,0.00
2019-02-20T05:59:56.814Z,0.00
2019-02-20T06:00:56.928Z,0.00
2019-02-20T06:01:56.880Z,0.00
2019-02-20T06:02:56.959Z,0.00
2019-02-20T06:03:56.757Z,4.00
2019-02-20T06:04:56.755Z,4.00
2019-02-20T06:05:56.739Z,4.00
2019-02-20T06:06:56.917Z,0.00
2019-02-20T06:07:56.712Z,4.00
2019-02-20T06:08:56.882Z,4.00
2019-02-20T06:09:56.734Z,4.00
2019-02-20T06:10:56.703Z,8.00
2019-02-20T06:11:56.877Z,8.00
2019-02-20T06:12:56.902Z,12.00
2019-02-20T06:13:56.673Z,12.00
2019-02-20T06:14:56.864Z,12.00
2019-02-20T06:15:56.627Z,16.00
2019-02-20T06:16:56.686Z,16.00
2019-02-20T06:17:56.755Z,20.00
2019-02-20T06:18:56.762Z,24.00
2019-02-20T06:19:56.585Z,28.00
2019-02-20T06:20:56.864Z,32.00
2019-02-20T06:21:56.617Z,36.00
2019-02-20T06:22:56.697Z,44.00
2019-02-20T06:23:56.740Z,52.00
2019-02-20T06:24:56.683Z,56.00
2019-02-20T06:25:56.751Z,64.00
2019-02-20T06:26:56.564Z,72.00
2019-02-20T06:27:56.694Z,84.00
2019-02-20T06:28:56.575Z,96.00
2019-02-20T06:29:56.695Z,100.00
2019-02-20T06:30:56.524Z,116.00
2019-02-20T06:31:56.755Z,128.00
2019-02-20T06:32:56.531Z,136.00
2019-02-20T06:33:56.466Z,152.00
2019-02-20T06:34:56.534Z,164.00
2019-02-20T06:35:56.548Z,180.00
2019-02-20T06:36:56.464Z,196.00
2019-02-20T06:37:57.610Z,216.00
2019-02-20T06:38:56.395Z,240.00
2019-02-20T06:39:56.492Z,264.00
2019-02-20T06:40:56.417Z,288.00
2019-02-20T06:41:56.566Z,308.00
2019-02-20T06:42:56.428Z,332.00
2019-02-20T06:43:57.538Z,356.00
2019-02-20T06:44:56.333Z,376.00
2019-02-20T06:45:56.318Z,400.00
2019-02-20T06:46:56.421Z,428.00
2019-02-20T06:47:56.444Z,448.00
2019-02-20T06:48:56.337Z,472.00
2019-02-20T06:49:56.464Z,496.00
2019-02-20T06:50:56.327Z,508.00
2019-02-20T06:51:56.396Z,520.00
2019-02-20T06:52:56.275Z,560.00
2019-02-20T06:53:57.405Z,596.00
2019-02-20T06:54:56.277Z,616.00
2019-02-20T06:55:56.366Z,632.00
2019-02-20T06:56:56.333Z,648.00
2019-02-20T06:57:56.209Z,668.00
2019-02-20T06:58:56.305Z,688.00
2019-02-20T06:59:56.229Z,720.00
2019-02-20T07:00:56.310Z,764.00
2019-02-20T07:01:56.423Z,804.00
2019-02-20T07:02:58.264Z,864.00
2019-02-20T07:03:56.161Z,920.00
2019-02-20T07:04:56.225Z,992.00
2019-02-20T07:05:56.204Z,1052.00
2019-02-20T07:06:56.389Z,1100.00
2019-02-20T07:07:56.118Z,1128.00
2019-02-20T07:08:56.261Z,1148.00
2019-02-20T07:09:56.239Z,1176.00
2019-02-20T07:10:56.193Z,1212.00
2019-02-20T07:11:56.173Z,1252.00
2019-02-20T07:12:57.274Z,1312.00
2019-02-20T07:13:56.097Z,1376.00
2019-02-20T07:14:56.133Z,1428.00
2019-02-20T07:15:56.119Z,1472.00
2019-02-20T07:16:58.268Z,1508.00
2019-02-20T07:17:56.053Z,1552.00
2019-02-20T07:18:57.195Z,1604.00
2019-02-20T07:19:56.020Z,1660.00
2019-02-20T07:20:56.002Z,1704.00
2019-02-20T07:21:55.996Z,1736.00
2019-02-20T07:22:57.057Z,1740.00
2019-02-20T07:23:55.992Z,1728.00
2019-02-20T07:25:02.774Z,1724.00
2019-02-20T07:25:56.905Z,1740.00
2019-02-20T07:26:55.933Z,1768.00
2019-02-20T07:27:56.096Z,1808.00
2019-02-20T07:28:55.902Z,1872.00
2019-02-20T07:30:02.557Z,1960.00
2019-02-20T07:30:55.918Z,2060.00
2019-02-20T07:31:56.113Z,2160.00
2019-02-20T07:32:55.903Z,2236.00
2019-02-20T07:33:56.007Z,2268.00
2019-02-20T07:34:55.862Z,2272.00
2019-02-20T07:35:57.002Z,2248.00
2019-02-20T07:36:55.988Z,2196.00
2019-02-20T07:37:56.998Z,2148.00
2019-02-20T07:38:55.861Z,2140.00
2019-02-20T07:39:57.275Z,2188.00
2019-02-20T07:40:55.768Z,2292.00
2019-02-20T07:41:58.014Z,2448.00
2019-02-20T07:42:55.733Z,2576.00
2019-02-20T07:43:55.794Z,2724.00
2019-02-20T07:44:55.716Z,2920.00
2019-02-20T07:45:56.897Z,3168.00
2019-02-20T07:46:55.773Z,3380.00
2019-02-20T07:47:56.844Z,3424.00
2019-02-20T07:48:55.791Z,3304.00
2019-02-20T07:49:55.756Z,3200.00
2019-02-20T07:50:56.785Z,3160.00
2019-02-20T07:51:55.688Z,3136.00
2019-02-20T07:52:55.810Z,3112.00
2019-02-20T07:53:55.659Z,3128.00
2019-02-20T07:54:56.849Z,3236.00
2019-02-20T07:55:55.589Z,3416.00
2019-02-20T07:56:56.849Z,3604.00
2019-02-20T07:57:55.578Z,3764.00
2019-02-20T07:58:55.682Z,3952.00
2019-02-20T07:59:55.560Z,4180.00
2019-02-20T08:00:55.593Z,4412.00
2019-02-20T08:01:55.568Z,4588.00
2019-02-20T08:02:55.689Z,4668.00
2019-02-20T08:03:55.669Z,4684.00
2019-02-20T08:04:55.598Z,4616.00
2019-02-20T08:05:55.516Z,4504.00
2019-02-20T08:06:55.663Z,4384.00
2019-02-20T08:07:55.468Z,4304.00
2019-02-20T08:08:55.640Z,4304.00
2019-02-20T08:09:55.490Z,4476.00
2019-02-20T08:10:55.561Z,4800.00
2019-02-20T08:11:55.488Z,5168.00
2019-02-20T08:12:55.500Z,5492.00
2019-02-20T08:13:55.559Z,5776.00
2019-02-20T08:14:55.438Z,5968.00
2019-02-20T08:15:56.737Z,5980.00
2019-02-20T08:16:55.649Z,5924.00
2019-02-20T08:17:55.985Z,5872.00
2019-02-20T08:18:55.350Z,5892.00
2019-02-20T08:19:56.457Z,5892.00
2019-02-20T08:20:55.395Z,5812.00
2019-02-20T08:21:55.502Z,5628.00
2019-02-20T08:22:55.334Z,5384.00
2019-02-20T08:23:55.338Z,5128.00
2019-02-20T08:24:55.922Z,4944.00
2019-02-20T08:25:55.453Z,4820.00
2019-02-20T08:26:55.367Z,4780.00
2019-02-20T08:27:56.640Z,4760.00
2019-02-20T08:28:55.254Z,4728.00
2019-02-20T08:29:55.331Z,4736.00
2019-02-20T08:30:55.470Z,4812.00
2019-02-20T08:31:55.263Z,4992.00
2019-02-20T08:32:55.468Z,5288.00
2019-02-20T08:33:55.390Z,5712.00
2019-02-20T08:34:56.477Z,6080.00
2019-02-20T08:35:55.174Z,6376.00
2019-02-20T08:36:56.420Z,6592.00
2019-02-20T08:37:55.222Z,6664.00
2019-02-20T08:38:56.317Z,6620.00
2019-02-20T08:39:55.146Z,6620.00
2019-02-20T08:40:55.178Z,6708.00
2019-02-20T08:41:55.157Z,6740.00
2019-02-20T08:42:55.340Z,6680.00
2019-02-20T08:43:55.283Z,6584.00
2019-02-20T08:44:55.219Z,6460.00
2019-02-20T08:45:55.094Z,6380.00
2019-02-20T08:46:55.128Z,6388.00
2019-02-20T08:47:55.065Z,6392.00
2019-02-20T08:48:55.252Z,6488.00
2019-02-20T08:49:55.114Z,6696.00
2019-02-20T08:50:55.516Z,6972.00
2019-02-20T08:51:55.227Z,7196.00
2019-02-20T08:52:55.077Z,7392.00
2019-02-20T08:53:55.111Z,7560.00
2019-02-20T08:54:55.179Z,7756.00
2019-02-20T08:55:55.290Z,7992.00
2019-02-20T08:56:57.233Z,8308.00
2019-02-20T08:57:55.053Z,8672.00
2019-02-20T08:58:54.983Z,8928.00
2019-02-20T08:59:56.131Z,9092.00
2019-02-20T09:00:54.949Z,9184.00
2019-02-20T09:01:59.680Z,9260.00
2019-02-20T09:02:55.058Z,9276.00
2019-02-20T09:03:55.182Z,9184.00
2019-02-20T09:04:54.943Z,9156.00
2019-02-20T09:05:55.140Z,9124.00
2019-02-20T09:06:55.161Z,9076.00
2019-02-20T09:07:55.168Z,9124.00
2019-02-20T09:08:54.836Z,9084.00
2019-02-20T09:09:54.833Z,8852.00
2019-02-20T09:10:54.826Z,8584.00
2019-02-20T09:11:54.962Z,8244.00
2019-02-20T09:12:54.824Z,7984.00
2019-02-20T09:13:55.003Z,7964.00
2019-02-20T09:14:54.817Z,8052.00
2019-02-20T09:15:54.779Z,8032.00
2019-02-20T09:16:54.800Z,8044.00
2019-02-20T09:17:54.892Z,8088.00
2019-02-20T09:18:54.749Z,8160.00
2019-02-20T09:19:54.928Z,8288.00
2019-02-20T09:20:54.712Z,8584.00
2019-02-20T09:21:54.737Z,8956.00
2019-02-20T09:22:54.926Z,9352.00
2019-02-20T09:23:54.692Z,9668.00
2019-02-20T09:24:54.836Z,9804.00
2019-02-20T09:25:54.660Z,9940.00
2019-02-20T09:26:54.859Z,10080.00
2019-02-20T09:27:54.681Z,10144.00
2019-02-20T09:28:56.661Z,10156.00
2019-02-20T09:29:54.660Z,10232.00
2019-02-20T09:30:54.771Z,10352.00
2019-02-20T09:31:54.633Z,10424.00
2019-02-20T09:32:54.758Z,10380.00
2019-02-20T09:33:54.739Z,10132.00
2019-02-20T09:34:54.607Z,9784.00
2019-02-20T09:35:54.790Z,9484.00
2019-02-20T09:36:54.572Z,9356.00
2019-02-20T09:37:55.291Z,9436.00
2019-02-20T09:38:54.524Z,9680.00
2019-02-20T09:39:54.910Z,9892.00
2019-02-20T09:40:54.881Z,9932.00
2019-02-20T09:41:54.529Z,9908.00
2019-02-20T09:42:54.655Z,9892.00
2019-02-20T09:43:54.482Z,9992.00
2019-02-20T09:44:54.555Z,10132.00
2019-02-20T09:45:54.448Z,10220.00
2019-02-20T09:46:58.015Z,10272.00
2019-02-20T09:47:54.426Z,10332.00
2019-02-20T09:48:54.731Z,10408.00
2019-02-20T09:49:54.412Z,10520.00
2019-02-20T09:50:54.397Z,10636.00
2019-02-20T09:51:54.458Z,10696.00
2019-02-20T09:52:54.572Z,10796.00
2019-02-20T09:53:54.357Z,11036.00
2019-02-20T09:54:55.462Z,11328.00
2019-02-20T09:55:54.407Z,11540.00
2019-02-20T09:56:54.348Z,11728.00
2019-02-20T09:57:54.375Z,11852.00
2019-02-20T09:58:55.544Z,11972.00
2019-02-20T09:59:54.324Z,12180.00
2019-02-20T10:00:54.709Z,12428.00
2019-02-20T10:01:55.007Z,12576.00
2019-02-20T10:02:54.371Z,12584.00
2019-02-20T10:03:54.404Z,12536.00
2019-02-20T10:04:54.354Z,12452.00
2019-02-20T10:05:55.428Z,12396.00
2019-02-20T10:06:54.391Z,12460.00
2019-02-20T10:07:54.421Z,12516.00
2019-02-20T10:08:54.473Z,12456.00
2019-02-20T10:09:56.184Z,12148.00
2019-02-20T10:10:54.350Z,11780.00
2019-02-20T10:11:54.247Z,11448.00
2019-02-20T10:12:54.364Z,11292.00
2019-02-20T10:13:54.156Z,11408.00
2019-02-20T10:14:54.625Z,11732.00
2019-02-20T10:15:54.420Z,12088.00
2019-02-20T10:16:54.335Z,12416.00
2019-02-20T10:17:54.241Z,12648.00
2019-02-20T10:18:54.516Z,12676.00
2019-02-20T10:19:54.229Z,12588.00
2019-02-20T10:20:54.267Z,12336.00
2019-02-20T10:21:54.522Z,11940.00
2019-02-20T10:22:54.152Z,11580.00
2019-02-20T10:23:54.280Z,11332.00
2019-02-20T10:24:54.032Z,11228.00
2019-02-20T10:26:00.489Z,11160.00
2019-02-20T10:27:00.649Z,11052.00
2019-02-20T10:27:55.167Z,10832.00
2019-02-20T10:28:54.369Z,10696.00
2019-02-20T10:29:54.176Z,10764.00
2019-02-20T10:30:53.998Z,10900.00
2019-02-20T10:31:54.136Z,10972.00
2019-02-20T10:32:53.999Z,11016.00
2019-02-20T10:33:54.073Z,11024.00
2019-02-20T10:34:53.935Z,11020.00
2019-02-20T10:35:54.104Z,11132.00
2019-02-20T10:36:53.950Z,11412.00
2019-02-20T10:37:53.949Z,11632.00
2019-02-20T10:38:53.894Z,11864.00
2019-02-20T10:39:54.032Z,12072.00
2019-02-20T10:40:53.934Z,12212.00
2019-02-20T10:41:54.004Z,12336.00
2019-02-20T10:42:53.852Z,12416.00
2019-02-20T10:43:53.860Z,12324.00
2019-02-20T10:44:53.961Z,12224.00
2019-02-20T10:45:53.826Z,12104.00
2019-02-20T10:46:54.042Z,11932.00
2019-02-20T10:47:53.788Z,11712.00
2019-02-20T10:48:53.978Z,11428.00
2019-02-20T10:49:53.790Z,11160.00
2019-02-20T10:50:53.909Z,11016.00
2019-02-20T10:51:53.810Z,10916.00
2019-02-20T10:52:53.901Z,10740.00
2019-02-20T10:53:53.728Z,10636.00
2019-02-20T10:54:57.707Z,10756.00
2019-02-20T10:55:53.712Z,10900.00
2019-02-20T10:56:53.890Z,11148.00
2019-02-20T10:57:53.713Z,11392.00
2019-02-20T10:58:53.862Z,11548.00
2019-02-20T10:59:53.698Z,11620.00
2019-02-20T11:00:53.779Z,11656.00
2019-02-20T11:01:53.682Z,11672.00
2019-02-20T11:02:53.763Z,11864.00
2019-02-20T11:03:53.637Z,12144.00
2019-02-20T11:04:53.798Z,12404.00
2019-02-20T11:05:54.065Z,12424.00
2019-02-20T11:06:53.624Z,12344.00
2019-02-20T11:07:53.633Z,12428.00
2019-02-20T11:08:53.703Z,12508.00
2019-02-20T11:09:53.556Z,12524.00
2019-02-20T11:10:53.764Z,12492.00
2019-02-20T11:11:54.499Z,12472.00
2019-02-20T11:12:53.689Z,12408.00
2019-02-20T11:13:53.869Z,12316.00
2019-02-20T11:14:53.520Z,12176.00
2019-02-20T11:15:54.690Z,12056.00
2019-02-20T11:16:53.494Z,12048.00
2019-02-20T11:17:53.623Z,12060.00
2019-02-20T11:18:53.582Z,12176.00
2019-02-20T11:19:53.501Z,12248.00
2019-02-20T11:20:53.605Z,12184.00
2019-02-20T11:21:53.538Z,12072.00
2019-02-20T11:22:53.583Z,12000.00
2019-02-20T11:23:53.417Z,11912.00
2019-02-20T11:24:53.912Z,11796.00
2019-02-20T11:25:53.996Z,11740.00
2019-02-20T11:26:55.227Z,12096.00
2019-02-20T11:27:53.376Z,12720.00
2019-02-20T11:28:53.535Z,13256.00
2019-02-20T11:29:53.367Z,13812.00
2019-02-20T11:30:53.578Z,14308.00
2019-02-20T11:31:53.677Z,14720.00
2019-02-20T11:32:53.484Z,14956.00
2019-02-20T11:33:53.464Z,14964.00
2019-02-20T11:34:53.521Z,14748.00
2019-02-20T11:35:53.492Z,14548.00
2019-02-20T11:36:53.350Z,14440.00
2019-02-20T11:37:53.361Z,14208.00
2019-02-20T11:38:53.304Z,14484.00
2019-02-20T11:39:54.045Z,15264.00
2019-02-20T11:40:53.258Z,15784.00
2019-02-20T11:41:53.473Z,16192.00
2019-02-20T11:42:53.376Z,16224.00
2019-02-20T11:43:53.286Z,16224.00
2019-02-20T11:44:53.351Z,16224.00
2019-02-20T11:45:53.224Z,15928.00
2019-02-20T11:46:53.329Z,15616.00
2019-02-20T11:47:53.156Z,15228.00
2019-02-20T11:48:53.268Z,14816.00
2019-02-20T11:49:53.175Z,14592.00
2019-02-20T11:50:53.307Z,14788.00
2019-02-20T11:51:53.243Z,14992.00
2019-02-20T11:52:53.341Z,15056.00
2019-02-20T11:53:53.137Z,15152.00
2019-02-20T11:54:53.211Z,15344.00
2019-02-20T11:55:53.095Z,15468.00
2019-02-20T11:56:53.356Z,15628.00
2019-02-20T11:58:00.559Z,15748.00
2019-02-20T11:58:54.067Z,15764.00
2019-02-20T11:59:53.138Z,15668.00
2019-02-20T12:00:53.064Z,15240.00
2019-02-20T12:01:53.256Z,14268.00
2019-02-20T12:02:53.075Z,12812.00
2019-02-20T12:03:53.226Z,10984.00
2019-02-20T12:04:53.225Z,9724.00
2019-02-20T12:05:53.014Z,9668.00
2019-02-20T12:06:53.201Z,10528.00
2019-02-20T12:07:53.115Z,12244.00
2019-02-20T12:08:53.167Z,13888.00
2019-02-20T12:09:54.474Z,14960.00
2019-02-20T12:10:52.929Z,15780.00
2019-02-20T12:11:54.051Z,15924.00
2019-02-20T12:12:52.916Z,15808.00
2019-02-20T12:13:53.423Z,15592.00
2019-02-20T12:14:52.877Z,15312.00
2019-02-20T12:15:53.040Z,15140.00
2019-02-20T12:16:53.276Z,14928.00
2019-02-20T12:17:53.288Z,14908.00
2019-02-20T12:18:52.972Z,14692.00
2019-02-20T12:19:52.826Z,14256.00
2019-02-20T12:20:52.987Z,13868.00
2019-02-20T12:21:52.969Z,13504.00
2019-02-20T12:22:52.874Z,13000.00
2019-02-20T12:23:52.910Z,12304.00
2019-02-20T12:24:54.786Z,11884.00
2019-02-20T12:25:54.327Z,11964.00
2019-02-20T12:26:53.119Z,11908.00
2019-02-20T12:27:52.746Z,11772.00
2019-02-20T12:28:53.871Z,11644.00
2019-02-20T12:29:52.736Z,11668.00
2019-02-20T12:30:52.862Z,11792.00
2019-02-20T12:31:52.850Z,11744.00
2019-02-20T12:32:52.864Z,11888.00
2019-02-20T12:33:52.683Z,12220.00
2019-02-20T12:34:52.794Z,12652.00
2019-02-20T12:35:52.667Z,12600.00